Time;durP1;ratioP1;P1;durP2;ratioP2;P2;SDS_P1;SDS_P2;PMS_P1;PMS_P2;Temp;Humidity;BMP_temperature;BMP_pressure;BME280_temperature;BME280_humidity;BME280_pressure;Samples;Min_cycle;Max_cycle;Signal;HPM_P1;HPM_P2
2022/01/03 00:00:34;;;;;;;3.13;1.60;;;12.10;99.90;;;;;;5020880;28;20223;-66
2022/01/03 00:03:10;;;;;;;4.37;1.83;;;12.10;99.90;;;;;;5021523;28;20211;-64
2022/01/03 00:05:36;;;;;;;5.93;2.13;;;12.10;99.90;;;;;;5023899;28;20184;-64
2022/01/03 00:08:05;;;;;;;5.63;2.27;;;12.20;99.90;;;;;;5025584;28;20191;-63
2022/01/03 00:10:33;;;;;;;3.47;1.70;;;12.10;99.90;;;;;;5023546;28;20193;-63
2022/01/03 00:12:58;;;;;;;2.07;1.60;;;12.20;99.90;;;;;;5024875;28;20286;-64
2022/01/03 00:15:24;;;;;;;2.43;1.60;;;12.20;99.90;;;;;;5022810;28;20196;-63
2022/01/03 00:17:53;;;;;;;3.27;1.50;;;12.20;99.90;;;;;;5023919;28;20279;-66
2022/01/03 00:20:20;;;;;;;3.07;2.03;;;12.20;99.90;;;;;;5023673;28;20227;-63
2022/01/03 00:23:04;;;;;;;2.30;1.60;;;12.20;99.90;;;;;;5024714;28;20776;-64
2022/01/03 00:25:30;;;;;;;2.93;1.90;;;12.20;99.90;;;;;;5028794;28;20197;-66
2022/01/03 00:28:34;;;;;;;1.93;1.57;;;12.20;99.90;;;;;;5025513;28;20198;-64
2022/01/03 00:31:01;;;;;;;3.83;1.80;;;12.30;99.90;;;;;;5020382;28;20916;-66
2022/01/03 00:33:27;;;;;;;4.73;1.80;;;12.30;99.90;;;;;;5025044;28;20274;-64
2022/01/03 00:35:59;;;;;;;2.70;1.40;;;12.30;99.90;;;;;;5024641;28;20195;-64
2022/01/03 00:38:27;;;;;;;2.83;1.70;;;12.40;99.90;;;;;;5022927;28;20204;-65
2022/01/03 00:40:54;;;;;;;2.03;1.70;;;12.40;99.90;;;;;;5024477;28;20193;-64
2022/01/03 00:43:20;;;;;;;2.90;1.90;;;12.40;99.90;;;;;;5024785;28;21185;-63
2022/01/03 00:45:46;;;;;;;4.77;1.80;;;12.50;99.90;;;;;;5024438;28;20178;-63
2022/01/03 00:48:12;;;;;;;4.73;1.37;;;12.50;99.90;;;;;;5025451;28;20224;-63
2022/01/03 00:50:38;;;;;;;3.67;1.47;;;12.50;99.90;;;;;;5030926;28;20280;-63
2022/01/03 00:53:05;;;;;;;5.07;1.50;;;12.50;99.90;;;;;;5030545;28;20217;-65
2022/01/03 00:55:31;;;;;;;2.83;1.40;;;12.40;99.90;;;;;;5029450;28;20224;-67
2022/01/03 00:57:59;;;;;;;1.73;1.30;;;12.50;99.90;;;;;;5030987;28;20223;-65
2022/01/03 01:00:27;;;;;;;3.43;1.47;;;12.50;99.90;;;;;;5024212;28;20250;-67
2022/01/03 01:03:18;;;;;;;1.80;1.30;;;12.50;99.90;;;;;;5029329;28;20204;-64
2022/01/03 01:05:46;;;;;;;1.27;1.17;;;12.50;99.90;;;;;;5025816;28;20575;-64
2022/01/03 01:08:16;;;;;;;2.67;1.40;;;12.50;99.90;;;;;;5025051;28;20192;-65
2022/01/03 01:10:42;;;;;;;5.57;1.60;;;12.50;99.90;;;;;;5022277;28;20267;-63
2022/01/03 01:13:10;;;;;;;3.27;1.53;;;12.50;99.90;;;;;;5023177;28;20181;-65
2022/01/03 01:15:36;;;;;;;5.40;1.50;;;12.50;99.90;;;;;;5023340;28;20177;-64
2022/01/03 01:18:04;;;;;;;3.17;1.50;;;12.60;99.90;;;;;;5023326;28;20204;-65
2022/01/03 01:20:31;;;;;;;1.70;1.20;;;12.60;99.90;;;;;;5024655;28;20201;-64
2022/01/03 01:22:57;;;;;;;3.13;1.30;;;12.60;99.90;;;;;;5023377;28;20204;-66
2022/01/03 01:27:45;;;;;;;2.00;1.47;;;12.50;99.90;;;;;;5023469;28;20185;-64
2022/01/03 01:28:12;;;;;;;2.13;1.30;;;12.40;99.90;;;;;;5022811;28;20207;-64
2022/01/03 01:30:38;;;;;;;4.53;1.50;;;12.30;99.90;;;;;;5022413;28;20412;-63
2022/01/03 01:33:15;;;;;;;3.57;1.40;;;12.10;99.90;;;;;;5022750;28;20261;-63
2022/01/03 01:35:48;;;;;;;2.53;1.30;;;11.90;99.90;;;;;;5022820;28;20283;-64
2022/01/03 01:38:16;;;;;;;2.33;1.20;;;11.80;99.90;;;;;;5023359;28;20242;-65
2022/01/03 01:40:48;;;;;;;1.40;1.10;;;11.70;99.90;;;;;;5022058;28;20231;-64
2022/01/03 01:43:18;;;;;;;1.40;1.00;;;11.50;99.90;;;;;;5022780;28;20217;-64
2022/01/03 01:45:48;;;;;;;1.00;0.97;;;11.20;99.90;;;;;;5021412;28;20189;-63
2022/01/03 01:48:16;;;;;;;1.27;0.80;;;11.10;99.90;;;;;;5022505;28;20673;-64
2022/01/03 01:50:41;;;;;;;1.80;0.77;;;10.90;99.90;;;;;;5021426;28;20185;-62
2022/01/03 01:53:08;;;;;;;1.07;0.70;;;10.70;99.90;;;;;;5023342;28;20686;-64
2022/01/03 01:55:39;;;;;;;0.83;0.70;;;10.60;99.90;;;;;;5021894;28;20197;-64
2022/01/03 01:58:21;;;;;;;0.77;0.77;;;10.50;99.90;;;;;;5022193;28;20213;-64
2022/01/03 02:00:56;;;;;;;0.83;0.80;;;10.40;99.90;;;;;;5021877;28;20496;-64
2022/01/03 02:03:21;;;;;;;1.07;0.97;;;10.40;99.90;;;;;;5019859;28;20181;-62
2022/01/03 02:06:07;;;;;;;0.60;0.60;;;10.20;99.90;;;;;;5022228;28;20196;-63
2022/01/03 02:08:39;;;;;;;0.50;0.50;;;10.20;99.90;;;;;;5017260;28;20176;-64
2022/01/03 02:11:16;;;;;;;2.00;0.87;;;10.20;99.90;;;;;;5019047;28;20313;-65
2022/01/03 02:13:44;;;;;;;1.37;0.87;;;10.10;99.90;;;;;;5018279;28;20177;-63
2022/01/03 02:16:11;;;;;;;1.53;0.60;;;10.00;99.90;;;;;;5019434;28;20597;-62
2022/01/03 02:18:36;;;;;;;0.60;0.60;;;9.90;99.90;;;;;;5015244;28;21090;-63
2022/01/03 02:21:03;;;;;;;0.70;0.67;;;9.90;99.90;;;;;;5021178;28;20216;-66
2022/01/03 02:23:28;;;;;;;0.77;0.50;;;9.80;99.90;;;;;;5021610;28;20203;-63
2022/01/03 02:25:54;;;;;;;0.40;0.40;;;9.90;99.90;;;;;;5019382;28;20188;-66
2022/01/03 02:28:20;;;;;;;0.40;0.40;;;9.90;99.90;;;;;;5023294;28;20704;-61
2022/01/03 02:30:47;;;;;;;0.63;0.53;;;10.00;99.90;;;;;;5017001;28;20592;-64
2022/01/03 02:33:13;;;;;;;0.40;0.40;;;9.90;99.90;;;;;;5014523;28;20232;-64
2022/01/03 02:35:42;;;;;;;0.43;0.43;;;9.90;99.90;;;;;;5017738;28;20192;-64
2022/01/03 02:38:08;;;;;;;0.40;0.40;;;10.00;99.90;;;;;;5020273;28;20331;-62
2022/01/03 02:40:34;;;;;;;3.93;0.60;;;10.00;99.90;;;;;;5019255;28;20188;-63
2022/01/03 02:43:00;;;;;;;0.37;0.37;;;10.00;99.90;;;;;;5020773;28;20176;-64
2022/01/03 02:45:27;;;;;;;0.57;0.50;;;10.00;99.90;;;;;;5021644;28;20189;-65
2022/01/03 02:48:04;;;;;;;4.07;0.70;;;10.00;99.90;;;;;;5019606;28;20266;-67
2022/01/03 02:50:32;;;;;;;0.30;0.30;;;10.00;99.90;;;;;;5015711;28;20265;-62
2022/01/03 02:52:58;;;;;;;1.60;0.40;;;9.90;99.90;;;;;;5017680;28;20220;-64
2022/01/03 02:55:26;;;;;;;0.30;0.30;;;10.00;99.90;;;;;;5020871;28;20200;-62
2022/01/03 02:57:54;;;;;;;1.20;0.40;;;10.00;99.90;;;;;;5018707;28;20205;-64
2022/01/03 03:00:25;;;;;;;0.40;0.40;;;10.00;99.90;;;;;;5020786;28;20189;-63
2022/01/03 03:02:51;;;;;;;1.90;0.50;;;10.00;99.90;;;;;;5018793;28;20203;-63
2022/01/03 03:05:17;;;;;;;0.47;0.47;;;10.00;99.90;;;;;;5020421;28;20280;-64
2022/01/03 03:07:45;;;;;;;0.40;0.40;;;10.00;99.90;;;;;;5019743;28;20202;-66
2022/01/03 03:10:13;;;;;;;0.63;0.63;;;10.00;99.90;;;;;;5020409;28;20185;-64
2022/01/03 03:12:39;;;;;;;0.40;0.40;;;10.00;99.90;;;;;;5016731;28;20185;-61
2022/01/03 03:15:08;;;;;;;0.37;0.37;;;10.00;99.90;;;;;;5014526;28;20193;-65
2022/01/03 03:17:34;;;;;;;0.70;0.50;;;10.10;99.90;;;;;;5012508;28;20212;-64
2022/01/03 03:20:05;;;;;;;0.53;0.47;;;10.00;99.90;;;;;;5015049;28;20481;-63
2022/01/03 03:22:31;;;;;;;0.47;0.47;;;10.00;99.90;;;;;;5019154;28;21429;-62
2022/01/03 03:25:06;;;;;;;0.50;0.50;;;10.00;99.90;;;;;;5017470;28;20629;-66
2022/01/03 03:27:34;;;;;;;0.93;0.70;;;10.00;99.90;;;;;;5015301;28;20195;-63
2022/01/03 03:30:00;;;;;;;0.47;0.47;;;10.00;99.90;;;;;;5017170;28;20206;-63
2022/01/03 03:32:27;;;;;;;0.50;0.50;;;9.90;99.90;;;;;;5018963;28;20190;-62
2022/01/03 03:34:53;;;;;;;0.93;0.50;;;9.90;99.90;;;;;;5017657;28;20566;-63
2022/01/03 03:37:19;;;;;;;1.63;0.60;;;9.90;99.90;;;;;;5020149;28;20226;-63
2022/01/03 03:39:46;;;;;;;0.50;0.50;;;9.90;99.90;;;;;;5021685;28;20203;-65
2022/01/03 03:42:14;;;;;;;0.50;0.50;;;9.90;99.90;;;;;;5029677;28;20188;-65
2022/01/03 03:44:39;;;;;;;1.77;0.60;;;9.80;99.90;;;;;;5022323;28;20204;-62
2022/01/03 03:47:06;;;;;;;0.77;0.60;;;9.80;99.90;;;;;;5024026;28;20193;-63
2022/01/03 03:49:33;;;;;;;1.83;0.60;;;9.80;99.90;;;;;;5027704;28;20190;-62
2022/01/03 03:52:01;;;;;;;0.73;0.60;;;9.80;99.90;;;;;;5023671;28;20267;-63
2022/01/03 03:54:28;;;;;;;0.60;0.60;;;9.80;99.90;;;;;;5024589;28;20185;-66
2022/01/03 03:56:53;;;;;;;0.93;0.43;;;9.80;99.90;;;;;;5022624;28;20745;-63
2022/01/03 03:59:19;;;;;;;0.60;0.40;;;9.90;99.90;;;;;;5025724;28;20663;-67
2022/01/03 04:01:44;;;;;;;1.07;0.60;;;9.70;99.90;;;;;;5018102;28;20205;-63
2022/01/03 04:04:10;;;;;;;0.53;0.53;;;9.70;99.90;;;;;;5021399;28;20264;-63
2022/01/03 04:06:36;;;;;;;0.73;0.50;;;9.70;99.90;;;;;;5021806;28;20264;-63
2022/01/03 04:09:01;;;;;;;0.47;0.47;;;9.70;99.90;;;;;;5021571;28;20174;-65
2022/01/03 04:11:27;;;;;;;0.60;0.60;;;9.70;99.90;;;;;;5021653;28;20203;-62
2022/01/03 04:13:53;;;;;;;0.53;0.53;;;9.70;99.90;;;;;;5019873;28;20196;-64
2022/01/03 04:16:18;;;;;;;0.40;0.40;;;9.80;99.90;;;;;;5018972;28;20235;-63
2022/01/03 04:18:44;;;;;;;0.83;0.50;;;9.80;99.90;;;;;;5020773;28;20248;-63
2022/01/03 04:21:10;;;;;;;0.47;0.47;;;9.80;99.90;;;;;;5019395;28;20720;-63
2022/01/03 04:23:35;;;;;;;0.50;0.50;;;9.90;99.90;;;;;;5021679;28;20191;-63
2022/01/03 04:26:04;;;;;;;0.90;0.73;;;9.90;99.90;;;;;;5020824;28;20239;-63
2022/01/03 04:28:29;;;;;;;1.17;0.50;;;10.00;99.90;;;;;;5018415;28;20197;-67
2022/01/03 04:30:55;;;;;;;2.13;0.90;;;9.90;99.90;;;;;;5020171;28;20197;-63
2022/01/03 04:33:21;;;;;;;0.70;0.70;;;9.90;99.90;;;;;;5018848;28;20236;-63
2022/01/03 04:35:47;;;;;;;1.40;0.70;;;9.90;99.90;;;;;;5019118;28;20197;-63
2022/01/03 04:38:12;;;;;;;2.00;0.70;;;9.80;99.90;;;;;;5021735;28;20228;-64
2022/01/03 04:40:38;;;;;;;1.80;0.70;;;9.90;99.90;;;;;;5018756;28;20280;-65
2022/01/03 04:43:04;;;;;;;3.40;0.87;;;9.90;99.90;;;;;;5018867;28;21829;-63
2022/01/03 04:45:29;;;;;;;2.00;0.60;;;9.90;99.90;;;;;;5020270;28;20194;-63
2022/01/03 04:47:55;;;;;;;0.60;0.60;;;9.90;99.90;;;;;;5018625;28;20186;-67
2022/01/03 04:50:21;;;;;;;0.60;0.60;;;10.00;99.90;;;;;;5017895;28;20283;-63
2022/01/03 04:52:47;;;;;;;0.80;0.70;;;10.00;99.90;;;;;;5015276;28;20250;-64
2022/01/03 04:55:13;;;;;;;1.67;0.93;;;10.00;99.90;;;;;;5015309;28;20223;-64
2022/01/03 04:57:38;;;;;;;0.70;0.70;;;10.10;99.90;;;;;;5021999;28;20223;-64
2022/01/03 05:00:06;;;;;;;0.63;0.63;;;10.10;99.90;;;;;;5019975;28;20524;-63
2022/01/03 05:02:32;;;;;;;4.03;0.83;;;10.10;99.90;;;;;;5020269;28;20220;-68
2022/01/03 05:04:58;;;;;;;1.20;1.10;;;10.10;99.90;;;;;;5020364;28;20239;-63
2022/01/03 05:07:23;;;;;;;1.10;1.00;;;10.10;99.90;;;;;;5020322;28;20196;-63
2022/01/03 05:09:49;;;;;;;2.20;0.90;;;10.10;99.90;;;;;;5021097;28;20205;-63
2022/01/03 05:12:16;;;;;;;0.80;0.80;;;10.10;99.90;;;;;;5023704;28;20228;-63
2022/01/03 05:14:42;;;;;;;0.70;0.67;;;10.10;99.90;;;;;;5022678;28;21022;-65
2022/01/03 05:17:08;;;;;;;2.90;1.17;;;10.10;99.90;;;;;;5023317;28;20203;-65
2022/01/03 05:19:34;;;;;;;0.77;0.77;;;10.10;99.90;;;;;;5023977;28;20683;-65
2022/01/03 05:22:00;;;;;;;0.60;0.60;;;10.10;99.90;;;;;;5025896;28;20263;-61
2022/01/03 05:24:25;;;;;;;0.67;0.67;;;10.10;99.90;;;;;;5024898;28;20673;-70
2022/01/03 05:26:51;;;;;;;1.13;0.90;;;10.20;99.90;;;;;;5016163;28;20216;-64
2022/01/03 05:29:16;;;;;;;2.43;1.03;;;10.20;99.90;;;;;;5022337;28;20223;-64
2022/01/03 05:31:42;;;;;;;1.87;0.80;;;10.20;99.90;;;;;;5023529;28;20192;-63
2022/01/03 05:34:08;;;;;;;5.43;0.80;;;10.20;99.90;;;;;;5022083;28;20233;-65
2022/01/03 05:36:33;;;;;;;1.27;0.80;;;10.20;99.90;;;;;;5019751;28;20201;-63
2022/01/03 05:38:59;;;;;;;1.17;0.80;;;10.10;99.90;;;;;;5020861;28;20197;-63
2022/01/03 05:41:25;;;;;;;0.87;0.80;;;10.20;99.90;;;;;;5018180;28;20223;-63
2022/01/03 05:43:52;;;;;;;0.83;0.70;;;10.20;99.90;;;;;;5020894;28;20181;-62
2022/01/03 05:46:18;;;;;;;0.77;0.70;;;10.20;99.90;;;;;;5023443;28;20181;-63
2022/01/03 05:48:43;;;;;;;0.70;0.70;;;10.30;99.90;;;;;;5025253;28;21392;-65
2022/01/03 05:51:09;;;;;;;1.87;0.80;;;10.30;99.90;;;;;;5023875;28;20181;-63
2022/01/03 05:53:35;;;;;;;2.47;1.13;;;10.30;99.90;;;;;;5022873;28;20629;-63
2022/01/03 05:56:00;;;;;;;1.17;0.90;;;10.30;99.90;;;;;;5023246;28;20782;-65
2022/01/03 05:58:27;;;;;;;3.47;1.13;;;10.30;99.90;;;;;;5023263;28;20757;-63
2022/01/03 06:00:53;;;;;;;2.03;0.90;;;10.20;99.90;;;;;;5022263;28;20231;-64
2022/01/03 06:03:21;;;;;;;1.43;1.00;;;10.30;99.90;;;;;;5018937;28;20280;-62
2022/01/03 06:08:22;;;;;;;0.97;0.87;;;10.10;99.90;;;;;;5020041;28;20215;-68
2022/01/03 06:10:48;;;;;;;2.60;1.03;;;10.00;99.90;;;;;;5019424;28;20255;-62
2022/01/03 06:13:15;;;;;;;4.10;1.00;;;9.90;99.90;;;;;;5018729;28;20188;-65
2022/01/03 06:15:41;;;;;;;1.33;0.90;;;9.80;99.90;;;;;;5017584;28;20185;-69
2022/01/03 06:18:11;;;;;;;5.47;1.20;;;9.80;99.90;;;;;;5015427;28;20216;-62
2022/01/03 06:20:41;;;;;;;2.20;1.30;;;9.90;99.90;;;;;;5017761;28;20244;-63
2022/01/03 06:23:12;;;;;;;4.17;1.30;;;9.80;99.90;;;;;;5019853;28;20235;-62
2022/01/03 06:25:38;;;;;;;1.17;1.00;;;9.60;99.90;;;;;;5021913;28;20185;-66
2022/01/03 06:28:09;;;;;;;6.17;1.40;;;9.50;99.90;;;;;;5024022;28;20200;-63
2022/01/03 06:30:35;;;;;;;3.57;1.30;;;9.30;99.90;;;;;;5023305;28;20197;-63
2022/01/03 06:33:02;;;;;;;3.07;1.27;;;9.20;99.90;;;;;;5022855;28;20233;-73
2022/01/03 06:35:28;;;;;;;3.63;1.10;;;9.20;99.90;;;;;;5025395;28;20188;-62
2022/01/03 06:37:54;;;;;;;5.30;1.20;;;9.20;99.90;;;;;;5022926;28;20216;-63
2022/01/03 06:40:19;;;;;;;5.73;1.20;;;9.30;99.90;;;;;;5017446;28;20193;-67
2022/01/03 06:42:45;;;;;;;1.70;1.17;;;9.30;99.90;;;;;;5016734;28;20189;-66
2022/01/03 06:45:11;;;;;;;1.53;1.00;;;9.30;99.90;;;;;;5019763;28;20217;-66
2022/01/03 06:47:36;;;;;;;3.30;1.27;;;9.40;99.90;;;;;;5016360;28;20212;-68
2022/01/03 06:50:03;;;;;;;2.97;1.00;;;9.40;99.90;;;;;;5022106;28;20632;-64
2022/01/03 06:52:29;;;;;;;1.23;0.90;;;9.40;99.90;;;;;;5017312;28;20181;-70
2022/01/03 06:54:55;;;;;;;0.97;0.80;;;9.50;99.90;;;;;;5017595;28;20192;-66
2022/01/03 06:57:21;;;;;;;2.70;0.97;;;9.40;99.90;;;;;;5019550;28;20237;-64
2022/01/03 06:59:46;;;;;;;1.87;1.20;;;9.50;99.90;;;;;;5017513;28;20223;-63
2022/01/03 07:02:12;;;;;;;1.70;1.03;;;9.60;99.90;;;;;;5022059;28;20195;-62
2022/01/03 07:04:38;;;;;;;4.27;1.23;;;9.60;99.90;;;;;;5022329;28;20192;-66
2022/01/03 07:07:04;;;;;;;5.30;1.20;;;9.60;99.90;;;;;;5019722;28;20189;-63
2022/01/03 07:09:30;;;;;;;4.40;1.40;;;9.70;99.90;;;;;;5021995;28;20238;-65
2022/01/03 07:11:55;;;;;;;4.20;1.27;;;9.60;99.90;;;;;;5019989;28;20247;-68
2022/01/03 07:19:45;;;;;;;1.67;1.20;;;9.60;99.90;;;;;;5022915;28;20196;-63
2022/01/03 07:22:11;;;;;;;3.17;1.20;;;9.70;99.90;;;;;;5021165;28;20192;-64
2022/01/03 07:24:39;;;;;;;2.20;0.90;;;9.60;99.90;;;;;;5022119;28;20194;-63
2022/01/03 07:27:06;;;;;;;5.20;1.70;;;9.80;99.90;;;;;;5021957;28;20211;-62
2022/01/03 07:29:33;;;;;;;6.27;1.40;;;9.80;99.90;;;;;;5021627;28;20180;-64
2022/01/03 07:31:59;;;;;;;4.20;1.43;;;9.80;99.90;;;;;;5021901;28;20645;-63
2022/01/03 07:34:25;;;;;;;2.77;1.20;;;9.80;99.90;;;;;;5018686;28;20244;-64
2022/01/03 07:36:51;;;;;;;3.60;1.03;;;9.80;99.90;;;;;;5016438;28;20208;-68
2022/01/03 07:39:17;;;;;;;6.60;1.77;;;9.90;99.90;;;;;;5020460;28;20217;-64
2022/01/03 07:41:43;;;;;;;0.90;0.87;;;9.90;99.90;;;;;;5019691;28;20201;-64
2022/01/03 07:44:08;;;;;;;2.77;1.27;;;9.90;99.90;;;;;;5019982;28;20189;-63
2022/01/03 07:46:34;;;;;;;3.70;1.40;;;9.80;99.90;;;;;;5022275;28;20189;-64
2022/01/03 07:49:00;;;;;;;8.53;1.30;;;9.90;99.90;;;;;;5026021;28;20211;-63
2022/01/03 07:51:26;;;;;;;1.30;0.87;;;9.90;99.90;;;;;;5024218;28;20200;-63
2022/01/03 07:53:51;;;;;;;1.73;1.13;;;9.90;99.90;;;;;;5019020;28;20196;-64
2022/01/03 07:56:19;;;;;;;4.37;1.10;;;9.90;99.90;;;;;;5018748;28;20547;-65
2022/01/03 07:58:45;;;;;;;3.10;1.43;;;9.80;99.90;;;;;;5011806;28;20215;-64
2022/01/03 08:01:12;;;;;;;4.87;1.10;;;9.80;99.90;;;;;;5013490;28;20217;-64
2022/01/03 08:03:38;;;;;;;3.60;1.10;;;9.80;99.90;;;;;;5015362;28;20179;-64
2022/01/03 08:06:04;;;;;;;2.27;0.83;;;9.90;99.90;;;;;;5015229;28;20220;-64
2022/01/03 08:08:30;;;;;;;4.17;1.27;;;9.90;99.90;;;;;;5019926;28;20196;-64
2022/01/03 08:10:56;;;;;;;5.20;1.20;;;9.90;99.90;;;;;;5020648;28;20185;-68
2022/01/03 08:13:22;;;;;;;1.63;1.10;;;9.80;99.90;;;;;;5020200;28;20189;-64
2022/01/03 08:15:47;;;;;;;4.73;1.73;;;9.90;99.90;;;;;;5019655;28;20247;-65
2022/01/03 08:18:13;;;;;;;3.93;1.67;;;9.90;99.90;;;;;;5017268;28;20277;-62
2022/01/03 08:20:41;;;;;;;3.13;1.17;;;9.90;99.90;;;;;;5015100;28;20586;-65
2022/01/03 08:23:07;;;;;;;2.20;1.00;;;10.00;99.90;;;;;;5017198;28;20229;-65
2022/01/03 08:25:37;;;;;;;3.30;1.40;;;10.10;99.90;;;;;;5015708;28;20268;-63
2022/01/03 08:28:07;;;;;;;1.53;1.13;;;10.00;99.90;;;;;;5017662;28;20196;-65
2022/01/03 08:30:33;;;;;;;2.60;1.30;;;9.90;99.90;;;;;;5019239;28;20633;-64
2022/01/03 08:32:59;;;;;;;1.73;0.90;;;10.00;99.90;;;;;;5017177;28;20368;-63
2022/01/03 08:35:25;;;;;;;4.70;1.40;;;9.90;99.90;;;;;;5021777;28;20251;-65
2022/01/03 08:37:52;;;;;;;4.13;1.20;;;9.90;99.90;;;;;;5018294;28;20212;-65
2022/01/03 08:40:18;;;;;;;5.07;1.20;;;9.90;99.90;;;;;;5017609;28;21307;-65
2022/01/03 08:42:45;;;;;;;1.57;1.07;;;10.00;99.90;;;;;;5017948;28;20198;-64
2022/01/03 08:45:12;;;;;;;3.30;0.90;;;10.00;99.90;;;;;;5018522;28;20220;-65
2022/01/03 08:47:38;;;;;;;3.77;0.87;;;10.10;99.90;;;;;;5020903;28;20188;-69
2022/01/03 08:50:05;;;;;;;6.77;1.10;;;10.10;99.90;;;;;;5020303;28;20196;-68
2022/01/03 08:52:31;;;;;;;2.47;1.20;;;10.20;99.90;;;;;;5021410;28;20191;-64
2022/01/03 08:54:57;;;;;;;5.40;1.30;;;10.20;99.90;;;;;;5022367;28;20188;-67
2022/01/03 08:57:25;;;;;;;2.20;1.07;;;10.20;99.90;;;;;;5020085;28;20224;-64
2022/01/03 08:59:51;;;;;;;2.83;1.20;;;10.30;99.90;;;;;;5016982;28;20208;-64
2022/01/03 09:02:19;;;;;;;3.83;1.30;;;10.30;99.90;;;;;;5018508;28;20712;-65
2022/01/03 09:04:46;;;;;;;5.27;1.63;;;10.40;99.90;;;;;;5020798;28;20196;-63
2022/01/03 09:07:12;;;;;;;3.30;1.20;;;10.50;99.90;;;;;;5018129;28;20603;-63
2022/01/03 09:09:38;;;;;;;3.63;1.20;;;10.50;99.90;;;;;;5013409;28;20208;-66
2022/01/03 09:12:08;;;;;;;5.10;1.27;;;10.60;99.90;;;;;;5028386;28;20224;-67
2022/01/03 09:14:35;;;;;;;2.77;1.20;;;10.70;99.90;;;;;;5024111;28;20193;-68
2022/01/03 09:17:01;;;;;;;3.17;1.33;;;10.70;99.90;;;;;;5017420;28;20212;-64
2022/01/03 09:19:28;;;;;;;2.03;1.10;;;10.80;99.90;;;;;;5017597;28;20215;-63
2022/01/03 09:22:11;;;;;;;3.27;1.30;;;10.90;99.90;;;;;;5020857;28;20192;-63
2022/01/03 09:30:16;;;;;;;3.43;1.10;;;10.90;99.90;;;;;;5023122;28;20199;-68
2022/01/03 09:32:41;;;;;;;5.93;1.40;;;10.90;99.90;;;;;;5028496;28;20703;-70
2022/01/03 09:35:08;;;;;;;3.97;1.20;;;10.90;99.90;;;;;;5027276;28;20197;-65
2022/01/03 09:37:36;;;;;;;4.53;1.50;;;10.90;99.90;;;;;;5022280;28;20251;-64
2022/01/03 09:40:03;;;;;;;4.67;1.30;;;10.80;99.90;;;;;;5019904;28;20184;-65
2022/01/03 09:42:30;;;;;;;3.20;1.43;;;10.90;99.90;;;;;;5023929;28;20202;-63
2022/01/03 09:44:59;;;;;;;3.37;1.00;;;11.00;99.90;;;;;;5018866;28;20260;-67
2022/01/03 09:47:28;;;;;;;2.37;1.07;;;11.00;99.90;;;;;;5019562;28;20182;-64
2022/01/03 09:49:54;;;;;;;3.10;1.00;;;11.00;99.90;;;;;;5017466;28;20197;-66
2022/01/03 09:52:24;;;;;;;5.60;1.97;;;11.10;99.90;;;;;;5018011;28;20189;-63
2022/01/03 09:54:50;;;;;;;3.53;1.47;;;11.10;99.90;;;;;;5017903;28;20213;-68
2022/01/03 09:57:19;;;;;;;2.63;1.13;;;11.20;99.90;;;;;;5017051;28;20209;-64
2022/01/03 09:59:46;;;;;;;1.47;1.00;;;11.20;99.90;;;;;;5018234;28;20246;-63
2022/01/03 10:02:16;;;;;;;5.33;1.40;;;11.30;99.90;;;;;;5016044;28;20777;-65
2022/01/03 10:04:42;;;;;;;2.67;1.10;;;11.40;99.90;;;;;;5019654;28;20193;-66
2022/01/03 10:07:11;;;;;;;3.57;1.10;;;11.50;99.90;;;;;;5016344;28;20187;-63
2022/01/03 10:09:38;;;;;;;2.20;1.17;;;11.60;99.90;;;;;;5012300;28;20189;-67
2022/01/03 10:12:05;;;;;;;7.73;1.60;;;11.60;99.90;;;;;;5021503;28;20708;-67
2022/01/03 10:14:31;;;;;;;4.30;1.27;;;11.60;99.90;;;;;;5020060;28;20192;-62
2022/01/03 10:16:56;;;;;;;3.43;1.20;;;11.80;99.90;;;;;;5015735;28;20216;-63
2022/01/03 10:19:23;;;;;;;4.47;1.27;;;11.90;99.90;;;;;;5019805;28;20199;-63
2022/01/03 10:21:53;;;;;;;1.53;0.97;;;11.80;99.90;;;;;;5014723;28;20216;-64
2022/01/03 10:24:32;;;;;;;4.20;1.17;;;12.00;99.90;;;;;;5026209;28;20256;-64
2022/01/03 10:27:07;;;;;;;8.63;1.70;;;11.90;99.90;;;;;;5024348;28;20206;-65
2022/01/03 10:29:34;;;;;;;2.23;0.90;;;11.80;99.90;;;;;;5026095;28;20262;-65
2022/01/03 10:32:02;;;;;;;2.23;1.03;;;11.90;99.90;;;;;;5021330;28;20611;-63
2022/01/03 10:34:32;;;;;;;1.93;1.03;;;11.80;99.90;;;;;;5021313;28;20259;-65
2022/01/03 10:36:58;;;;;;;2.40;1.07;;;11.70;99.90;;;;;;5019643;28;20308;-64
2022/01/03 10:39:34;;;;;;;3.97;1.03;;;11.80;99.90;;;;;;5024499;28;20196;-63
2022/01/03 10:42:18;;;;;;;3.37;1.60;;;11.70;99.90;;;;;;5018646;28;20192;-67
2022/01/03 10:44:45;;;;;;;6.27;1.63;;;11.80;99.90;;;;;;5017320;28;20619;-64
2022/01/03 10:47:30;;;;;;;1.63;0.90;;;11.80;99.90;;;;;;5018421;28;20197;-70
2022/01/03 10:49:56;;;;;;;4.07;1.23;;;11.80;99.90;;;;;;5014683;28;20253;-62
2022/01/03 10:52:31;;;;;;;5.33;1.67;;;11.90;99.90;;;;;;5019828;28;20228;-64
2022/01/03 10:55:16;;;;;;;2.10;1.20;;;11.90;99.90;;;;;;5018137;28;20189;-67
2022/01/03 10:58:03;;;;;;;3.57;1.20;;;12.10;99.90;;;;;;5010957;28;20239;-63
2022/01/03 11:00:35;;;;;;;1.97;1.07;;;11.90;99.90;;;;;;5028559;28;20222;-63
2022/01/03 11:03:10;;;;;;;3.50;1.10;;;11.90;99.90;;;;;;5014300;28;20181;-64
2022/01/03 11:05:38;;;;;;;4.33;1.47;;;11.90;99.90;;;;;;5014286;28;20187;-64
2022/01/03 11:10:43;;;;;;;4.03;1.17;;;11.70;99.90;;;;;;5024446;28;20239;-68
2022/01/03 11:13:20;;;;;;;0.97;0.90;;;11.70;99.90;;;;;;5015717;28;20209;-62
2022/01/03 11:15:55;;;;;;;3.77;1.27;;;11.70;99.90;;;;;;5017159;28;20546;-63
2022/01/03 11:18:32;;;;;;;3.00;1.00;;;11.60;99.90;;;;;;5019549;28;20715;-63
2022/01/03 11:21:04;;;;;;;3.57;1.30;;;11.60;99.90;;;;;;5014357;28;20254;-65
2022/01/03 11:23:31;;;;;;;1.43;1.03;;;11.60;99.90;;;;;;5017896;28;20215;-63
2022/01/03 11:26:10;;;;;;;1.50;1.10;;;11.60;99.90;;;;;;5006628;28;20232;-63
2022/01/03 11:28:37;;;;;;;1.77;1.23;;;11.60;99.90;;;;;;5017372;28;20193;-62
2022/01/03 11:31:03;;;;;;;1.80;1.17;;;11.60;99.90;;;;;;5017341;28;20188;-66
2022/01/03 11:33:30;;;;;;;1.80;1.00;;;11.50;99.90;;;;;;5013018;28;20239;-64
2022/01/03 11:35:58;;;;;;;2.60;1.10;;;11.70;99.90;;;;;;5015822;28;20188;-74
2022/01/03 11:38:28;;;;;;;3.57;1.43;;;11.80;99.90;;;;;;5013386;28;20219;-64
2022/01/03 11:40:55;;;;;;;2.30;1.10;;;12.30;99.90;;;;;;5016810;28;20188;-63
2022/01/03 11:43:21;;;;;;;4.47;1.37;;;11.90;99.90;;;;;;5017080;28;20236;-64
2022/01/03 11:45:50;;;;;;;2.67;1.10;;;11.70;99.90;;;;;;5013119;28;20185;-66
2022/01/03 11:48:16;;;;;;;3.00;0.90;;;11.70;99.90;;;;;;5021908;28;20195;-64
2022/01/03 11:50:45;;;;;;;2.10;1.20;;;11.70;99.90;;;;;;5020789;28;20187;-65
2022/01/03 11:53:20;;;;;;;5.13;1.20;;;11.70;99.90;;;;;;5017497;28;20259;-64
2022/01/03 11:55:49;;;;;;;1.83;1.33;;;11.70;99.90;;;;;;5021681;28;20307;-70
2022/01/03 11:58:28;;;;;;;4.53;1.10;;;11.70;99.90;;;;;;5022995;28;20203;-65
2022/01/03 12:03:50;;;;;;;3.30;1.07;;;12.00;99.90;;;;;;5025070;28;20185;-63
2022/01/03 12:06:26;;;;;;;1.53;0.80;;;12.00;99.90;;;;;;5025313;28;20193;-65
2022/01/03 12:08:59;;;;;;;1.47;0.93;;;12.00;99.90;;;;;;5016908;28;21677;-65
2022/01/03 12:11:28;;;;;;;2.03;1.20;;;12.10;99.90;;;;;;5023863;28;20564;-68
2022/01/03 12:14:04;;;;;;;3.13;1.30;;;12.00;99.90;;;;;;5020996;28;20189;-63
2022/01/03 12:16:41;;;;;;;8.77;1.60;;;12.00;99.90;;;;;;5020025;28;20205;-64
2022/01/03 12:19:10;;;;;;;1.83;1.03;;;11.90;99.90;;;;;;5018182;28;20185;-72
2022/01/03 12:22:00;;;;;;;2.33;1.00;;;11.90;99.90;;;;;;5015163;28;20192;-65
2022/01/03 12:24:26;;;;;;;5.53;1.23;;;11.90;99.90;;;;;;5010465;28;20628;-64
2022/01/03 12:27:10;;;;;;;6.90;1.60;;;11.90;99.90;;;;;;5017249;28;20218;-67
2022/01/03 12:29:54;;;;;;;2.47;1.33;;;11.90;99.90;;;;;;5022619;28;20189;-63
2022/01/03 12:32:33;;;;;;;2.17;0.90;;;11.90;99.90;;;;;;5021170;28;20204;-66
2022/01/03 12:35:16;;;;;;;2.47;1.00;;;11.90;99.90;;;;;;5022388;28;20919;-65
2022/01/03 12:37:52;;;;;;;2.17;1.10;;;11.90;99.90;;;;;;5028206;28;20221;-73
2022/01/03 12:40:32;;;;;;;4.77;1.10;;;11.80;99.90;;;;;;5022135;28;20259;-65
2022/01/03 12:43:07;;;;;;;3.67;1.17;;;11.80;99.90;;;;;;5021940;28;20267;-65
2022/01/03 12:45:32;;;;;;;2.17;0.87;;;11.70;99.90;;;;;;5026690;28;20181;-67
2022/01/03 12:48:20;;;;;;;3.90;1.13;;;11.70;99.90;;;;;;5024515;28;20190;-64
2022/01/03 12:50:52;;;;;;;3.60;1.20;;;11.70;99.90;;;;;;5026464;28;20189;-63
2022/01/03 12:53:26;;;;;;;3.90;1.13;;;11.70;99.90;;;;;;5024313;28;20291;-63
2022/01/03 12:56:13;;;;;;;2.63;1.10;;;11.70;99.90;;;;;;5017590;28;20603;-66
2022/01/03 12:58:49;;;;;;;4.33;1.37;;;11.60;99.90;;;;;;5021038;28;20303;-64
2022/01/03 13:01:17;;;;;;;2.13;1.20;;;11.70;99.90;;;;;;5020100;28;20668;-64
2022/01/03 13:03:49;;;;;;;1.63;1.00;;;11.70;99.90;;;;;;5019230;28;20292;-65
2022/01/03 13:06:25;;;;;;;2.17;1.10;;;11.60;99.90;;;;;;5022300;28;20191;-65
2022/01/03 13:08:58;;;;;;;3.00;1.20;;;11.60;99.90;;;;;;5016859;28;20204;-64
2022/01/03 13:11:34;;;;;;;4.03;1.27;;;11.60;99.90;;;;;;5021129;28;20207;-68
2022/01/03 13:14:21;;;;;;;2.63;1.27;;;11.60;99.90;;;;;;5019609;28;20286;-64
2022/01/03 13:16:56;;;;;;;3.83;1.20;;;11.60;99.90;;;;;;5017752;28;20237;-69